KBDL METAR and TAF | Updated Today

KBDL METAR

Bradley International Airport

Observation time: 47 min. ago

KBDL 301651Z 20005KT 10SM OVC070 03/M06 A2995 RMK AO2 SLP145 T00281061 $

Need help? Read our tutorial on how to read METARs or read the parsed version below.

Bradley International Airport (KBDL) METAR

  • Weather conditions on Tue, 30 Nov 2021 16:51:00 +0000 (47 min. ago):
  • Present conditions: Dry
  • Clouds: Overcast sky at 2134 meters
  • Visibility: 16093 meters
  • Wind: 200 degrees at 5 knots
  • Temperature: 3 celsius
  • Dew point: -6 celsius
  • Pressure: 29.95 inHg
  • Remarks: AO2 SLP145 T00281061 $


Useful to know...

KBDL TAF

Bradley International Airport

KBDL 301505Z 3015/0118 23006KT P6SM BKN070 FM010400 23004KT P6SM SCT060 FM011300 25008KT P6SM BKN250
Observation time: 2:33 hr. ago
Need help? Read our tutorial on how to read TAFs or read the parsed version below.

Parsed version of TAF for Bradley International Airport (KBDL)

  • From 30 November at 15:00 UTC, to day 01 of the month at 18:00 UTC
  • Clouds: Broken sky at 2134 meters
  • Wind: 230 degrees at 6
  • From day 1 of the month at 04:00 UTC
  • Clouds: Scattered at 1829 meters
  • Wind: 230 degrees at 4
  • From day 1 of the month at 13:00 UTC
  • Clouds: Broken sky at 7620 meters
  • Wind: 250 degrees at 8